Time;durP1;ratioP1;P1;durP2;ratioP2;P2;SDS_P1;SDS_P2;PMS_P1;PMS_P2;Temp;Humidity;BMP_temperature;BMP_pressure;BME280_temperature;BME280_humidity;BME280_pressure;Samples;Min_cycle;Max_cycle;Signal;HPM_P1;HPM_P2
2022/07/30 00:00:59;;;;;;;;;;;;;;;;;;2106712;28;19931;-42
2022/07/30 00:02:00;;;;;;;;;;;;;;;;;;2106852;28;19924;-42
2022/07/30 00:03:01;;;;;;;;;;;;;;;;;;2106516;28;20435;-42
2022/07/30 00:04:02;;;;;;;;;;;;;;;;;;2106646;28;19924;-43
2022/07/30 00:05:03;;;;;;;;;;;;;;;;;;2106636;28;19947;-42
2022/07/30 00:06:04;;;;;;;;;;;;;;;;;;2106634;28;19924;-43
2022/07/30 00:07:05;;;;;;;;;;;;;;;;;;2106646;28;20220;-42
2022/07/30 00:08:06;;;;;;;;;;;;;;;;;;2106660;28;19935;-42
2022/07/30 00:09:06;;;;;;;;;;;;;;;;;;2106521;28;20045;-43
2022/07/30 00:10:07;;;;;;;;;;;;;;;;;;2106575;28;19924;-43
2022/07/30 00:11:10;;;;;;;;;;;;;;;;;;2104719;28;19952;-42
2022/07/30 00:12:11;;;;;;;;;;;;;;;;;;2098311;28;20019;-42
2022/07/30 00:13:12;;;;;;;;;;;;;;;;;;2098331;28;20003;-42
2022/07/30 00:14:14;;;;;;;;;;;;;;;;;;2098136;28;19924;-42
2022/07/30 00:15:15;;;;;;;;;;;;;;;;;;2098298;28;20412;-42
2022/07/30 00:16:16;;;;;;;;;;;;;;;;;;2098088;28;19983;-43
2022/07/30 00:17:17;;;;;;;;;;;;;;;;;;2098334;28;19970;-42
2022/07/30 00:18:18;;;;;;;;;;;;;;;;;;2098421;28;20015;-43
2022/07/30 00:19:19;;;;;;;;;;;;;;;;;;2098236;28;20297;-43
2022/07/30 00:20:19;;;;;;;;;;;;;;;;;;2098192;28;20011;-43
2022/07/30 00:21:20;;;;;;;;;;;;;;;;;;2098054;28;20278;-42
2022/07/30 00:22:36;;;;;;;;;;;;;;;;;;2098341;28;19924;-43
2022/07/30 00:23:37;;;;;;;;;;;;;;;;;;2098302;28;20075;-43
2022/07/30 00:24:38;;;;;;;;;;;;;;;;;;2098006;28;19925;-43
2022/07/30 00:25:39;;;;;;;;;;;;;;;;;;2098238;28;19924;-42
2022/07/30 00:26:40;;;;;;;;;;;;;;;;;;2098017;28;20334;-43
2022/07/30 00:27:41;;;;;;;;;;;;;;;;;;2098063;28;19925;-43
2022/07/30 00:28:41;;;;;;;;;;;;;;;;;;2098260;28;20420;-43
2022/07/30 00:29:42;;;;;;;;;;;;;;;;;;2098071;28;19928;-42
2022/07/30 00:30:45;;;;;;;;;;;;;;;;;;2099196;28;19924;-43
2022/07/30 00:31:46;;;;;;;;;;;;;;;;;;2106194;28;19924;-42
2022/07/30 00:32:46;;;;;;;;;;;;;;;;;;2106566;28;19963;-42
2022/07/30 00:33:47;;;;;;;;;;;;;;;;;;2106447;28;20086;-42
2022/07/30 00:34:48;;;;;;;;;;;;;;;;;;2106014;28;20365;-43
2022/07/30 00:35:49;;;;;;;;;;;;;;;;;;2106414;28;19928;-42
2022/07/30 00:36:50;;;;;;;;;;;;;;;;;;2106283;28;19924;-42
2022/07/30 00:37:51;;;;;;;;;;;;;;;;;;2106527;28;19963;-42
2022/07/30 00:38:51;;;;;;;;;;;;;;;;;;2106330;28;19924;-42
2022/07/30 00:39:52;;;;;;;;;;;;;;;;;;2106493;28;19924;-42
2022/07/30 00:40:53;;;;;;;;;;;;;;;;;;2106396;28;20098;-44
2022/07/30 00:41:54;;;;;;;;;;;;;;;;;;2106347;28;19963;-43
2022/07/30 00:42:55;;;;;;;;;;;;;;;;;;2106479;28;19932;-42
2022/07/30 00:43:56;;;;;;;;;;;;;;;;;;2106384;28;19951;-43
2022/07/30 00:44:57;;;;;;;;;;;;;;;;;;2106577;28;19924;-43
2022/07/30 00:45:57;;;;;;;;;;;;;;;;;;2106507;28;19970;-42
2022/07/30 00:46:58;;;;;;;;;;;;;;;;;;2106308;28;20383;-42
2022/07/30 00:48:00;;;;;;;;;;;;;;;;;;2106305;28;20019;-44
2022/07/30 00:49:01;;;;;;;;;;;;;;;;;;2106499;28;19993;-43
2022/07/30 00:50:03;;;;;;;;;;;;;;;;;;2106357;28;19924;-43
2022/07/30 00:51:04;;;;;;;;;;;;;;;;;;2106315;28;19924;-43
2022/07/30 00:52:05;;;;;;;;;;;;;;;;;;2106273;28;19924;-43
2022/07/30 00:53:05;;;;;;;;;;;;;;;;;;2106368;28;19940;-44
2022/07/30 00:54:06;;;;;;;;;;;;;;;;;;2106394;28;19924;-43
2022/07/30 00:55:07;;;;;;;;;;;;;;;;;;2106429;28;20367;-44
2022/07/30 00:56:08;;;;;;;;;;;;;;;;;;2106219;28;19997;-44
2022/07/30 00:57:09;;;;;;;;;;;;;;;;;;2106443;28;19969;-44
2022/07/30 00:58:10;;;;;;;;;;;;;;;;;;2106238;28;20019;-43
2022/07/30 00:59:11;;;;;;;;;;;;;;;;;;2106395;28;19924;-43
2022/07/30 01:00:12;;;;;;;;;;;;;;;;;;2106608;28;20259;-43
2022/07/30 01:01:13;;;;;;;;;;;;;;;;;;2106128;28;20012;-46
2022/07/30 01:02:14;;;;;;;;;;;;;;;;;;2106503;28;19997;-45
2022/07/30 01:03:15;;;;;;;;;;;;;;;;;;2106284;28;20044;-45
2022/07/30 01:04:15;;;;;;;;;;;;;;;;;;2106153;28;19928;-45
2022/07/30 01:05:16;;;;;;;;;;;;;;;;;;2106309;28;20023;-44
2022/07/30 01:06:17;;;;;;;;;;;;;;;;;;2106303;28;19962;-45
2022/07/30 01:07:18;;;;;;;;;;;;;;;;;;2106130;28;19924;-46
2022/07/30 01:08:19;;;;;;;;;;;;;;;;;;2106260;28;19977;-46
2022/07/30 01:09:20;;;;;;;;;;;;;;;;;;2106264;28;19930;-45
2022/07/30 01:10:21;;;;;;;;;;;;;;;;;;2106178;28;19966;-45
2022/07/30 01:11:22;;;;;;;;;;;;;;;;;;2102605;28;20309;-43
2022/07/30 01:12:23;;;;;;;;;;;;;;;;;;2097923;28;19925;-43
2022/07/30 01:13:24;;;;;;;;;;;;;;;;;;2097959;28;20065;-42
2022/07/30 01:14:24;;;;;;;;;;;;;;;;;;2097900;28;19938;-43
2022/07/30 01:15:25;;;;;;;;;;;;;;;;;;2097830;28;20312;-43
2022/07/30 01:16:26;;;;;;;;;;;;;;;;;;2097823;28;19960;-43
2022/07/30 01:17:27;;;;;;;;;;;;;;;;;;2097835;28;20420;-43
2022/07/30 01:19:47;;;;;;;;;;;;;;;;;;2097911;28;19979;-43
2022/07/30 01:19:51;;;;;;;;;;;;;;;;;;2097872;28;20512;-43
2022/07/30 01:20:52;;;;;;;;;;;;;;;;;;2097781;28;20015;-43
2022/07/30 01:21:52;;;;;;;;;;;;;;;;;;2097788;28;20016;-42
2022/07/30 01:22:53;;;;;;;;;;;;;;;;;;2097941;28;19982;-44
2022/07/30 01:23:54;;;;;;;;;;;;;;;;;;2097725;28;20027;-43
2022/07/30 01:24:55;;;;;;;;;;;;;;;;;;2097741;28;19982;-43
2022/07/30 01:25:56;;;;;;;;;;;;;;;;;;2097772;28;20015;-43
2022/07/30 01:26:57;;;;;;;;;;;;;;;;;;2098360;28;19925;-45
2022/07/30 01:27:58;;;;;;;;;;;;;;;;;;2106032;28;19924;-43
2022/07/30 01:28:59;;;;;;;;;;;;;;;;;;2106179;28;19954;-43
2022/07/30 01:30:00;;;;;;;;;;;;;;;;;;2106102;28;20401;-43
2022/07/30 01:31:01;;;;;;;;;;;;;;;;;;2106071;28;19931;-44
2022/07/30 01:32:01;;;;;;;;;;;;;;;;;;2106285;28;20014;-44
2022/07/30 01:33:02;;;;;;;;;;;;;;;;;;2106114;28;19924;-43
2022/07/30 01:34:03;;;;;;;;;;;;;;;;;;2106099;28;20385;-43
2022/07/30 01:35:04;;;;;;;;;;;;;;;;;;2106111;28;19924;-43
2022/07/30 01:36:05;;;;;;;;;;;;;;;;;;2106042;28;20418;-43
2022/07/30 01:37:07;;;;;;;;;;;;;;;;;;2105921;28;19928;-42
2022/07/30 01:38:08;;;;;;;;;;;;;;;;;;2106273;28;20007;-43
2022/07/30 01:39:09;;;;;;;;;;;;;;;;;;2105966;28;19959;-44
2022/07/30 01:40:10;;;;;;;;;;;;;;;;;;2106406;28;19935;-44
2022/07/30 01:41:11;;;;;;;;;;;;;;;;;;2106103;28;19931;-43
2022/07/30 01:42:11;;;;;;;;;;;;;;;;;;2106090;28;19987;-42
2022/07/30 01:43:12;;;;;;;;;;;;;;;;;;2106122;28;19938;-43
2022/07/30 01:44:13;;;;;;;;;;;;;;;;;;2106335;28;20003;-44
2022/07/30 01:45:14;;;;;;;;;;;;;;;;;;2106085;28;20395;-43
2022/07/30 01:46:15;;;;;;;;;;;;;;;;;;2105988;28;19924;-43
2022/07/30 01:47:16;;;;;;;;;;;;;;;;;;2107351;28;19928;-43
2022/07/30 01:48:17;;;;;;;;;;;;;;;;;;2107481;28;20014;-43
2022/07/30 01:49:18;;;;;;;;;;;;;;;;;;2107421;28;20415;-43
2022/07/30 01:50:18;;;;;;;;;;;;;;;;;;2107463;28;20270;-43
2022/07/30 01:51:19;;;;;;;;;;;;;;;;;;2107426;28;19979;-43
2022/07/30 01:52:20;;;;;;;;;;;;;;;;;;2107526;28;20011;-42
2022/07/30 01:53:21;;;;;;;;;;;;;;;;;;2107525;28;19924;-42
2022/07/30 01:54:22;;;;;;;;;;;;;;;;;;2107482;28;20372;-42
2022/07/30 01:55:24;;;;;;;;;;;;;;;;;;2107402;28;19924;-45
2022/07/30 01:56:25;;;;;;;;;;;;;;;;;;2107560;28;20027;-43
2022/07/30 01:57:26;;;;;;;;;;;;;;;;;;2107515;28;19928;-42
2022/07/30 01:58:26;;;;;;;;;;;;;;;;;;2107404;28;20361;-42
2022/07/30 01:59:27;;;;;;;;;;;;;;;;;;2107565;28;19963;-43
2022/07/30 02:00:29;;;;;;;;;;;;;;;;;;2107481;28;19924;-43
2022/07/30 02:01:30;;;;;;;;;;;;;;;;;;2107322;28;20022;-43
2022/07/30 02:02:31;;;;;;;;;;;;;;;;;;2107445;28;19924;-43
2022/07/30 02:03:32;;;;;;;;;;;;;;;;;;2107577;28;20007;-42
2022/07/30 02:04:33;;;;;;;;;;;;;;;;;;2107564;28;19924;-43
2022/07/30 02:05:34;;;;;;;;;;;;;;;;;;2107740;28;20369;-43
2022/07/30 02:06:35;;;;;;;;;;;;;;;;;;2107322;28;19965;-42
2022/07/30 02:07:36;;;;;;;;;;;;;;;;;;2107415;28;19935;-43
2022/07/30 02:08:37;;;;;;;;;;;;;;;;;;2107353;28;20349;-43
2022/07/30 02:09:38;;;;;;;;;;;;;;;;;;2107540;28;19970;-44
2022/07/30 02:10:38;;;;;;;;;;;;;;;;;;2107307;28;19928;-43
2022/07/30 02:13:00;;;;;;;;;;;;;;;;;;2099280;28;19970;-43
2022/07/30 02:14:01;;;;;;;;;;;;;;;;;;2099184;28;20031;-43
2022/07/30 02:15:02;;;;;;;;;;;;;;;;;;2098988;28;19932;-42
2022/07/30 02:16:03;;;;;;;;;;;;;;;;;;2098891;28;19924;-43
2022/07/30 02:17:04;;;;;;;;;;;;;;;;;;2099008;28;19932;-42
2022/07/30 02:18:04;;;;;;;;;;;;;;;;;;2098907;28;20007;-43
2022/07/30 02:19:05;;;;;;;;;;;;;;;;;;2098934;28;20129;-42
2022/07/30 02:20:06;;;;;;;;;;;;;;;;;;2098833;28;19929;-43
2022/07/30 02:21:10;;;;;;;;;;;;;;;;;;2098969;28;20061;-44
2022/07/30 02:22:13;;;;;;;;;;;;;;;;;;2098970;28;19924;-43
2022/07/30 02:23:14;;;;;;;;;;;;;;;;;;2099839;28;19947;-44
2022/07/30 02:24:14;;;;;;;;;;;;;;;;;;2107256;28;20006;-43
2022/07/30 02:25:15;;;;;;;;;;;;;;;;;;2107527;28;20361;-43
2022/07/30 02:26:17;;;;;;;;;;;;;;;;;;2107075;28;20448;-44
2022/07/30 02:27:18;;;;;;;;;;;;;;;;;;2107346;28;20011;-43
2022/07/30 02:28:19;;;;;;;;;;;;;;;;;;2107466;28;19930;-44
2022/07/30 02:29:20;;;;;;;;;;;;;;;;;;2107276;28;20504;-44
2022/07/30 02:30:21;;;;;;;;;;;;;;;;;;2107380;28;19970;-42
2022/07/30 02:31:21;;;;;;;;;;;;;;;;;;2107146;28;20011;-44
2022/07/30 02:32:23;;;;;;;;;;;;;;;;;;2107110;28;19932;-43
2022/07/30 02:33:24;;;;;;;;;;;;;;;;;;2107334;28;20019;-43
2022/07/30 02:34:25;;;;;;;;;;;;;;;;;;2107353;28;20277;-42
2022/07/30 02:35:25;;;;;;;;;;;;;;;;;;2107289;28;19931;-43
2022/07/30 02:36:26;;;;;;;;;;;;;;;;;;2107213;28;20274;-43
2022/07/30 02:37:27;;;;;;;;;;;;;;;;;;2107274;28;20377;-42
2022/07/30 02:38:41;;;;;;;;;;;;;;;;;;2107598;28;19930;-44
2022/07/30 02:39:42;;;;;;;;;;;;;;;;;;2107077;28;19975;-44
2022/07/30 02:40:43;;;;;;;;;;;;;;;;;;2107245;28;19924;-44
2022/07/30 02:41:44;;;;;;;;;;;;;;;;;;2107112;28;20058;-44
2022/07/30 02:42:50;;;;;;;;;;;;;;;;;;2107187;28;19928;-45
2022/07/30 02:43:50;;;;;;;;;;;;;;;;;;2107321;28;20349;-42
2022/07/30 02:44:51;;;;;;;;;;;;;;;;;;2107108;28;20022;-43
2022/07/30 02:45:52;;;;;;;;;;;;;;;;;;2107145;28;20353;-42
2022/07/30 02:46:53;;;;;;;;;;;;;;;;;;2107046;28;20015;-43
2022/07/30 02:47:54;;;;;;;;;;;;;;;;;;2107082;28;19924;-43
2022/07/30 02:48:55;;;;;;;;;;;;;;;;;;2107141;28;19924;-43
2022/07/30 02:49:56;;;;;;;;;;;;;;;;;;2107211;28;19935;-42
2022/07/30 02:50:57;;;;;;;;;;;;;;;;;;2107126;28;20379;-43
2022/07/30 02:51:57;;;;;;;;;;;;;;;;;;2107305;28;19924;-43
2022/07/30 02:52:58;;;;;;;;;;;;;;;;;;2107115;28;19985;-42
2022/07/30 02:53:59;;;;;;;;;;;;;;;;;;2107101;28;20385;-43
2022/07/30 02:55:00;;;;;;;;;;;;;;;;;;2107172;28;19931;-44
2022/07/30 02:56:01;;;;;;;;;;;;;;;;;;2107058;28;19925;-42
2022/07/30 02:57:02;;;;;;;;;;;;;;;;;;2107046;28;20399;-43
2022/07/30 02:58:03;;;;;;;;;;;;;;;;;;2106688;28;20465;-43
2022/07/30 02:59:04;;;;;;;;;;;;;;;;;;2107074;28;19930;-42
2022/07/30 03:00:05;;;;;;;;;;;;;;;;;;2107024;28;20065;-47
2022/07/30 03:01:06;;;;;;;;;;;;;;;;;;2107359;28;20323;-43
2022/07/30 03:02:07;;;;;;;;;;;;;;;;;;2107249;28;19946;-44
2022/07/30 03:03:08;;;;;;;;;;;;;;;;;;2106917;28;19925;-44
2022/07/30 03:04:09;;;;;;;;;;;;;;;;;;2107218;28;20006;-43
2022/07/30 03:05:10;;;;;;;;;;;;;;;;;;2106992;28;19971;-43
2022/07/30 03:06:11;;;;;;;;;;;;;;;;;;2106881;28;20312;-44
2022/07/30 03:07:12;;;;;;;;;;;;;;;;;;2107267;28;19930;-43
2022/07/30 03:08:13;;;;;;;;;;;;;;;;;;2107161;28;19928;-43
2022/07/30 03:09:14;;;;;;;;;;;;;;;;;;2106979;28;19924;-43
2022/07/30 03:10:17;;;;;;;;;;;;;;;;;;2107067;28;20006;-43
2022/07/30 03:11:18;;;;;;;;;;;;;;;;;;2103772;28;20387;-42
2022/07/30 03:12:19;;;;;;;;;;;;;;;;;;2098539;28;20024;-42
2022/07/30 03:13:20;;;;;;;;;;;;;;;;;;2099078;28;19986;-44
2022/07/30 03:14:21;;;;;;;;;;;;;;;;;;2098560;28;19930;-43
2022/07/30 03:15:22;;;;;;;;;;;;;;;;;;2098793;28;19925;-43
2022/07/30 03:16:23;;;;;;;;;;;;;;;;;;2098513;28;19932;-43
2022/07/30 03:17:24;;;;;;;;;;;;;;;;;;2098752;28;20134;-44
2022/07/30 03:18:25;;;;;;;;;;;;;;;;;;2098636;28;19946;-43
2022/07/30 03:19:26;;;;;;;;;;;;;;;;;;2098976;28;19931;-43
2022/07/30 03:20:26;;;;;;;;;;;;;;;;;;2107110;28;19927;-43
2022/07/30 03:21:27;;;;;;;;;;;;;;;;;;2098571;28;19924;-42
2022/07/30 03:22:28;;;;;;;;;;;;;;;;;;2098547;28;19924;-43
2022/07/30 03:23:33;;;;;;;;;;;;;;;;;;2098692;28;19924;-42
2022/07/30 03:24:34;;;;;;;;;;;;;;;;;;2098618;28;20017;-43
2022/07/30 03:25:35;;;;;;;;;;;;;;;;;;2098481;28;19924;-42
2022/07/30 03:26:36;;;;;;;;;;;;;;;;;;2098646;28;19928;-43
2022/07/30 03:27:37;;;;;;;;;;;;;;;;;;2098406;28;20483;-44
2022/07/30 03:28:38;;;;;;;;;;;;;;;;;;2098843;28;20118;-43
2022/07/30 03:29:39;;;;;;;;;;;;;;;;;;2098473;28;19924;-42
2022/07/30 03:30:39;;;;;;;;;;;;;;;;;;2098568;28;19924;-43
2022/07/30 03:31:40;;;;;;;;;;;;;;;;;;2098364;28;20007;-44
2022/07/30 03:32:41;;;;;;;;;;;;;;;;;;2098519;28;20289;-43
2022/07/30 03:33:43;;;;;;;;;;;;;;;;;;2098488;28;19924;-44
2022/07/30 03:34:44;;;;;;;;;;;;;;;;;;2098499;28;20015;-43
2022/07/30 03:35:46;;;;;;;;;;;;;;;;;;2098479;28;19960;-44
2022/07/30 03:36:46;;;;;;;;;;;;;;;;;;2098327;28;20036;-42
2022/07/30 03:37:47;;;;;;;;;;;;;;;;;;2098597;28;20301;-44
2022/07/30 03:38:48;;;;;;;;;;;;;;;;;;2098437;28;19935;-44
2022/07/30 03:39:49;;;;;;;;;;;;;;;;;;2098367;28;19973;-43
2022/07/30 03:40:50;;;;;;;;;;;;;;;;;;2098641;28;20352;-44
2022/07/30 03:41:52;;;;;;;;;;;;;;;;;;2098392;28;19925;-44
2022/07/30 03:42:53;;;;;;;;;;;;;;;;;;2098492;28;19931;-46
2022/07/30 03:43:54;;;;;;;;;;;;;;;;;;2098513;28;19925;-45
2022/07/30 03:44:55;;;;;;;;;;;;;;;;;;2098454;28;20289;-44
2022/07/30 03:45:56;;;;;;;;;;;;;;;;;;2098523;28;19929;-45
2022/07/30 03:46:57;;;;;;;;;;;;;;;;;;2098423;28;20019;-45
2022/07/30 03:47:59;;;;;;;;;;;;;;;;;;2098443;28;20000;-45
2022/07/30 03:49:00;;;;;;;;;;;;;;;;;;2098511;28;19924;-42
2022/07/30 03:50:00;;;;;;;;;;;;;;;;;;2098377;28;19924;-42
2022/07/30 03:51:02;;;;;;;;;;;;;;;;;;2098390;28;20266;-42
2022/07/30 03:52:03;;;;;;;;;;;;;;;;;;2098503;28;19972;-42
2022/07/30 03:53:04;;;;;;;;;;;;;;;;;;2098661;28;19925;-44
2022/07/30 03:54:08;;;;;;;;;;;;;;;;;;2098302;28;20349;-44
2022/07/30 03:55:13;;;;;;;;;;;;;;;;;;2098528;28;20018;-47
2022/07/30 03:56:14;;;;;;;;;;;;;;;;;;2098257;28;20026;-48
2022/07/30 03:57:15;;;;;;;;;;;;;;;;;;2098399;28;19924;-44
2022/07/30 03:58:20;;;;;;;;;;;;;;;;;;2098284;28;20401;-47
2022/07/30 03:59:21;;;;;;;;;;;;;;;;;;2098483;28;19924;-43
2022/07/30 04:00:22;;;;;;;;;;;;;;;;;;2098246;28;19931;-42
2022/07/30 04:01:23;;;;;;;;;;;;;;;;;;2098193;28;19925;-41
2022/07/30 04:02:24;;;;;;;;;;;;;;;;;;2098586;28;19931;-42
2022/07/30 04:03:24;;;;;;;;;;;;;;;;;;2098163;28;19924;-43
2022/07/30 04:04:26;;;;;;;;;;;;;;;;;;2098413;28;19925;-42
2022/07/30 04:05:27;;;;;;;;;;;;;;;;;;2098346;28;20011;-43
2022/07/30 04:06:28;;;;;;;;;;;;;;;;;;2098224;28;20011;-42
2022/07/30 04:07:28;;;;;;;;;;;;;;;;;;2098242;28;20412;-43
2022/07/30 04:08:29;;;;;;;;;;;;;;;;;;2098539;28;19952;-42
2022/07/30 04:09:30;;;;;;;;;;;;;;;;;;2097548;28;19934;-44
2022/07/30 04:10:31;;;;;;;;;;;;;;;;;;2098217;28;20017;-46
2022/07/30 04:11:32;;;;;;;;;;;;;;;;;;2103200;28;19924;-42
2022/07/30 04:12:41;;;;;;;;;;;;;;;;;;2106585;28;19932;-42
2022/07/30 04:13:42;;;;;;;;;;;;;;;;;;2106595;28;20408;-42
2022/07/30 04:14:43;;;;;;;;;;;;;;;;;;2106945;28;19974;-44
2022/07/30 04:15:44;;;;;;;;;;;;;;;;;;2106432;28;19964;-44
2022/07/30 04:17:04;;;;;;;;;;;;;;;;;;2106639;28;19931;-47
2022/07/30 04:18:06;;;;;;;;;;;;;;;;;;2106669;28;19924;-44
2022/07/30 04:19:08;;;;;;;;;;;;;;;;;;2106561;28;19924;-45
2022/07/30 04:20:09;;;;;;;;;;;;;;;;;;2106586;28;19965;-45
2022/07/30 04:21:10;;;;;;;;;;;;;;;;;;2106513;28;19924;-44
2022/07/30 04:22:16;;;;;;;;;;;;;;;;;;2106754;28;20023;-44
2022/07/30 04:23:18;;;;;;;;;;;;;;;;;;2106823;28;20019;-42
2022/07/30 04:24:19;;;;;;;;;;;;;;;;;;2106609;28;20039;-43
2022/07/30 04:25:20;;;;;;;;;;;;;;;;;;2106616;28;20416;-43
2022/07/30 04:26:24;;;;;;;;;;;;;;;;;;2106697;28;19932;-43
2022/07/30 04:27:25;;;;;;;;;;;;;;;;;;2106936;28;19955;-42
2022/07/30 04:28:26;;;;;;;;;;;;;;;;;;2106385;28;20050;-43
2022/07/30 04:29:27;;;;;;;;;;;;;;;;;;2106849;28;19924;-44
2022/07/30 04:30:28;;;;;;;;;;;;;;;;;;2106567;28;19924;-45
2022/07/30 04:31:34;;;;;;;;;;;;;;;;;;2106552;28;20022;-43
2022/07/30 04:32:34;;;;;;;;;;;;;;;;;;2106479;28;19993;-43
2022/07/30 04:33:35;;;;;;;;;;;;;;;;;;2106470;28;19954;-43
2022/07/30 04:34:36;;;;;;;;;;;;;;;;;;2106296;28;20392;-42
2022/07/30 04:35:37;;;;;;;;;;;;;;;;;;2106440;28;19924;-42
2022/07/30 04:36:52;;;;;;;;;;;;;;;;;;2106286;28;20281;-42
2022/07/30 04:37:53;;;;;;;;;;;;;;;;;;2106592;28;19925;-43
2022/07/30 04:38:53;;;;;;;;;;;;;;;;;;2106590;28;19924;-43
2022/07/30 04:39:56;;;;;;;;;;;;;;;;;;2106538;28;20365;-43
2022/07/30 04:40:57;;;;;;;;;;;;;;;;;;2106447;28;20018;-42
2022/07/30 04:41:58;;;;;;;;;;;;;;;;;;2106262;28;19924;-42
2022/07/30 04:42:58;;;;;;;;;;;;;;;;;;2106636;28;19926;-47
2022/07/30 04:43:59;;;;;;;;;;;;;;;;;;2106366;28;20048;-45
2022/07/30 04:45:01;;;;;;;;;;;;;;;;;;2106688;28;19924;-43
2022/07/30 04:46:02;;;;;;;;;;;;;;;;;;2106408;28;20335;-44
2022/07/30 04:47:02;;;;;;;;;;;;;;;;;;2106347;28;20357;-46
2022/07/30 04:48:04;;;;;;;;;;;;;;;;;;2106323;28;20342;-44
2022/07/30 04:49:05;;;;;;;;;;;;;;;;;;2106449;28;19931;-44
2022/07/30 04:50:06;;;;;;;;;;;;;;;;;;2106564;28;19924;-45
2022/07/30 04:51:06;;;;;;;;;;;;;;;;;;2106294;28;19928;-44
2022/07/30 04:52:07;;;;;;;;;;;;;;;;;;2106468;28;20391;-44
2022/07/30 04:53:08;;;;;;;;;;;;;;;;;;2106314;28;20018;-45
2022/07/30 04:54:09;;;;;;;;;;;;;;;;;;2106409;28;19924;-45
2022/07/30 04:55:15;;;;;;;;;;;;;;;;;;2106362;28;19924;-45
2022/07/30 04:56:16;;;;;;;;;;;;;;;;;;2106392;28;19928;-45
2022/07/30 04:57:17;;;;;;;;;;;;;;;;;;2106333;28;19925;-45
2022/07/30 04:58:18;;;;;;;;;;;;;;;;;;2106457;28;19930;-46
2022/07/30 04:59:18;;;;;;;;;;;;;;;;;;2106357;28;20305;-46
2022/07/30 05:00:19;;;;;;;;;;;;;;;;;;2106402;28;19932;-46
2022/07/30 05:01:20;;;;;;;;;;;;;;;;;;2106424;28;20031;-47
2022/07/30 05:02:21;;;;;;;;;;;;;;;;;;2106235;28;20350;-46
2022/07/30 05:03:22;;;;;;;;;;;;;;;;;;2106365;28;19924;-48
2022/07/30 05:04:23;;;;;;;;;;;;;;;;;;2106216;28;19977;-46
2022/07/30 05:05:24;;;;;;;;;;;;;;;;;;2106430;28;19931;-45
2022/07/30 05:06:25;;;;;;;;;;;;;;;;;;2106254;28;20002;-45
2022/07/30 05:07:26;;;;;;;;;;;;;;;;;;2106277;28;20026;-47
2022/07/30 05:08:27;;;;;;;;;;;;;;;;;;2106264;28;19924;-45
2022/07/30 05:09:28;;;;;;;;;;;;;;;;;;2106412;28;19924;-45
2022/07/30 05:10:29;;;;;;;;;;;;;;;;;;2106257;28;19924;-45
2022/07/30 05:11:30;;;;;;;;;;;;;;;;;;2101578;28;19959;-46
2022/07/30 05:12:31;;;;;;;;;;;;;;;;;;2103236;28;19934;-46
2022/07/30 05:13:31;;;;;;;;;;;;;;;;;;2105987;28;19924;-46
2022/07/30 05:14:35;;;;;;;;;;;;;;;;;;2106426;28;19924;-46
2022/07/30 05:15:35;;;;;;;;;;;;;;;;;;2106184;28;20012;-45
2022/07/30 05:16:38;;;;;;;;;;;;;;;;;;2106206;28;19936;-46
2022/07/30 05:17:39;;;;;;;;;;;;;;;;;;2106143;28;19925;-46
2022/07/30 05:18:40;;;;;;;;;;;;;;;;;;2106359;28;20361;-45
2022/07/30 05:19:40;;;;;;;;;;;;;;;;;;2105989;28;20369;-46
2022/07/30 05:20:42;;;;;;;;;;;;;;;;;;2106014;28;19975;-46
2022/07/30 05:21:42;;;;;;;;;;;;;;;;;;2106237;28;19999;-45
2022/07/30 05:22:43;;;;;;;;;;;;;;;;;;2106274;28;19924;-48
2022/07/30 05:23:51;;;;;;;;;;;;;;;;;;2106477;28;19967;-46
2022/07/30 05:24:52;;;;;;;;;;;;;;;;;;2106134;28;20285;-46
2022/07/30 05:25:53;;;;;;;;;;;;;;;;;;2106554;28;19973;-43
2022/07/30 05:26:54;;;;;;;;;;;;;;;;;;2106101;28;19982;-43
2022/07/30 05:27:55;;;;;;;;;;;;;;;;;;2106267;28;19931;-43
2022/07/30 05:28:56;;;;;;;;;;;;;;;;;;2106397;28;20011;-46
2022/07/30 05:29:57;;;;;;;;;;;;;;;;;;2106278;28;19955;-45
2022/07/30 05:30:58;;;;;;;;;;;;;;;;;;2106165;28;20023;-45
2022/07/30 05:31:59;;;;;;;;;;;;;;;;;;2106278;28;19931;-46
2022/07/30 05:33:03;;;;;;;;;;;;;;;;;;2106391;28;20315;-44
2022/07/30 05:34:11;;;;;;;;;;;;;;;;;;2106229;28;19924;-45
2022/07/30 05:35:12;;;;;;;;;;;;;;;;;;2106131;28;19935;-47
2022/07/30 05:36:13;;;;;;;;;;;;;;;;;;2106028;28;19924;-45
2022/07/30 05:37:14;;;;;;;;;;;;;;;;;;2106325;28;20325;-45
2022/07/30 05:38:14;;;;;;;;;;;;;;;;;;2106063;28;19925;-45
2022/07/30 05:39:15;;;;;;;;;;;;;;;;;;2106331;28;20379;-47
2022/07/30 05:40:16;;;;;;;;;;;;;;;;;;2106285;28;19935;-45
2022/07/30 05:41:17;;;;;;;;;;;;;;;;;;2106030;28;19927;-45
2022/07/30 05:42:30;;;;;;;;;;;;;;;;;;2106144;28;20022;-46
2022/07/30 05:43:32;;;;;;;;;;;;;;;;;;2106108;28;19924;-45
2022/07/30 05:44:32;;;;;;;;;;;;;;;;;;2105987;28;20517;-45
2022/07/30 05:45:33;;;;;;;;;;;;;;;;;;2106073;28;19931;-45
2022/07/30 05:46:34;;;;;;;;;;;;;;;;;;2106323;28;20023;-45
2022/07/30 05:47:35;;;;;;;;;;;;;;;;;;2105971;28;20028;-45
2022/07/30 05:48:36;;;;;;;;;;;;;;;;;;2106066;28;20019;-48
2022/07/30 05:49:37;;;;;;;;;;;;;;;;;;2105981;28;19935;-45
2022/07/30 05:50:38;;;;;;;;;;;;;;;;;;2106085;28;19924;-45
2022/07/30 05:51:39;;;;;;;;;;;;;;;;;;2105929;28;20255;-45
2022/07/30 05:52:39;;;;;;;;;;;;;;;;;;2106144;28;19925;-45
2022/07/30 05:53:40;;;;;;;;;;;;;;;;;;2106224;28;19924;-45
2022/07/30 05:54:41;;;;;;;;;;;;;;;;;;2106685;28;19924;-43
2022/07/30 05:55:42;;;;;;;;;;;;;;;;;;2105981;28;19924;-43
2022/07/30 05:56:43;;;;;;;;;;;;;;;;;;2106070;28;20440;-45
2022/07/30 05:57:44;;;;;;;;;;;;;;;;;;2105940;28;19930;-43
2022/07/30 05:58:45;;;;;;;;;;;;;;;;;;2106313;28;19930;-43
2022/07/30 05:59:46;;;;;;;;;;;;;;;;;;2106089;28;19956;-43
2022/07/30 06:00:47;;;;;;;;;;;;;;;;;;2105996;28;19928;-45
2022/07/30 06:01:48;;;;;;;;;;;;;;;;;;2106307;28;20027;-47
2022/07/30 06:02:48;;;;;;;;;;;;;;;;;;2105973;28;19932;-45
2022/07/30 06:03:49;;;;;;;;;;;;;;;;;;2106079;28;19928;-46
2022/07/30 06:04:50;;;;;;;;;;;;;;;;;;2106162;28;20007;-46
2022/07/30 06:05:51;;;;;;;;;;;;;;;;;;2105837;28;20376;-45
2022/07/30 06:06:52;;;;;;;;;;;;;;;;;;2106005;28;19973;-43
2022/07/30 06:07:53;;;;;;;;;;;;;;;;;;2106086;28;19973;-44
2022/07/30 06:08:54;;;;;;;;;;;;;;;;;;2105825;28;20018;-43
2022/07/30 06:09:58;;;;;;;;;;;;;;;;;;2105832;28;20003;-43
2022/07/30 06:10:59;;;;;;;;;;;;;;;;;;2105303;28;20407;-43
2022/07/30 06:12:00;;;;;;;;;;;;;;;;;;2097434;28;19924;-44
2022/07/30 06:13:01;;;;;;;;;;;;;;;;;;2097753;28;19974;-44
2022/07/30 06:14:02;;;;;;;;;;;;;;;;;;2097670;28;19978;-43
2022/07/30 06:15:03;;;;;;;;;;;;;;;;;;2097473;28;20015;-44
2022/07/30 06:16:04;;;;;;;;;;;;;;;;;;2097483;28;20012;-43
2022/07/30 06:17:05;;;;;;;;;;;;;;;;;;2097670;28;19925;-43
2022/07/30 06:18:06;;;;;;;;;;;;;;;;;;2097444;28;19924;-43
2022/07/30 06:19:06;;;;;;;;;;;;;;;;;;2097601;28;20409;-43
2022/07/30 06:20:08;;;;;;;;;;;;;;;;;;2097558;28;19925;-44
2022/07/30 06:21:08;;;;;;;;;;;;;;;;;;2097338;28;19925;-43
2022/07/30 06:22:09;;;;;;;;;;;;;;;;;;2097616;28;20297;-43
2022/07/30 06:23:11;;;;;;;;;;;;;;;;;;2097514;28;20274;-43
2022/07/30 06:24:12;;;;;;;;;;;;;;;;;;2097754;28;19931;-46
2022/07/30 06:25:12;;;;;;;;;;;;;;;;;;2097657;28;19947;-45
2022/07/30 06:26:13;;;;;;;;;;;;;;;;;;2097414;28;20386;-45
2022/07/30 06:27:14;;;;;;;;;;;;;;;;;;2097695;28;19924;-43
2022/07/30 06:28:15;;;;;;;;;;;;;;;;;;2097639;28;19932;-44
2022/07/30 06:29:36;;;;;;;;;;;;;;;;;;2097516;28;19932;-44
2022/07/30 06:30:37;;;;;;;;;;;;;;;;;;2097462;28;20011;-44
2022/07/30 06:31:39;;;;;;;;;;;;;;;;;;2097721;28;19924;-43
2022/07/30 06:32:42;;;;;;;;;;;;;;;;;;2097983;28;20012;-45
2022/07/30 06:33:43;;;;;;;;;;;;;;;;;;2098873;28;20077;-45
2022/07/30 06:34:44;;;;;;;;;;;;;;;;;;2099207;28;19928;-43
2022/07/30 06:35:44;;;;;;;;;;;;;;;;;;2098919;28;20393;-43
2022/07/30 06:36:45;;;;;;;;;;;;;;;;;;2098786;28;19924;-43
2022/07/30 06:37:46;;;;;;;;;;;;;;;;;;2098985;28;20019;-44
2022/07/30 06:39:06;;;;;;;;;;;;;;;;;;2098994;28;20301;-46
2022/07/30 06:40:06;;;;;;;;;;;;;;;;;;2098912;28;19932;-45
2022/07/30 06:41:07;;;;;;;;;;;;;;;;;;2098917;28;19924;-45
2022/07/30 06:42:08;;;;;;;;;;;;;;;;;;2098898;28;19932;-44
2022/07/30 06:43:09;;;;;;;;;;;;;;;;;;2098830;28;20464;-45
2022/07/30 06:44:10;;;;;;;;;;;;;;;;;;2098879;28;20369;-47
2022/07/30 06:45:11;;;;;;;;;;;;;;;;;;2099063;28;19925;-45
2022/07/30 06:46:12;;;;;;;;;;;;;;;;;;2098740;28;20445;-45
2022/07/30 06:47:13;;;;;;;;;;;;;;;;;;2099057;28;19934;-45
2022/07/30 06:48:13;;;;;;;;;;;;;;;;;;2098725;28;19967;-46
2022/07/30 06:49:15;;;;;;;;;;;;;;;;;;2099177;28;19924;-45
2022/07/30 06:50:17;;;;;;;;;;;;;;;;;;2098932;28;19924;-44
2022/07/30 06:51:18;;;;;;;;;;;;;;;;;;2098598;28;19924;-43
2022/07/30 06:52:19;;;;;;;;;;;;;;;;;;2098805;28;19931;-44
2022/07/30 06:53:20;;;;;;;;;;;;;;;;;;2098880;28;20286;-43
2022/07/30 06:54:21;;;;;;;;;;;;;;;;;;2098654;28;19974;-43
2022/07/30 06:55:22;;;;;;;;;;;;;;;;;;2098944;28;19924;-44
2022/07/30 06:56:23;;;;;;;;;;;;;;;;;;2098593;28;20415;-44
2022/07/30 06:57:24;;;;;;;;;;;;;;;;;;2099163;28;19939;-43
2022/07/30 06:58:25;;;;;;;;;;;;;;;;;;2098901;28;19924;-44
2022/07/30 06:59:26;;;;;;;;;;;;;;;;;;2098714;28;19971;-43
2022/07/30 07:00:27;;;;;;;;;;;;;;;;;;2098764;28;20375;-43
2022/07/30 07:01:28;;;;;;;;;;;;;;;;;;2098617;28;20027;-47